createdAt,value
2023-04-18T00:01:40.574Z,6.37
2023-04-18T00:04:08.812Z,6.26
2023-04-18T00:06:35.660Z,6.58
2023-04-18T00:09:02.448Z,6.35
2023-04-18T00:11:29.243Z,6.36
2023-04-18T00:13:56.781Z,6.53
2023-04-18T00:16:24.063Z,6.77
2023-04-18T00:18:51.994Z,6.96
2023-04-18T00:21:18.619Z,6.52
2023-04-18T00:23:45.841Z,6.99
2023-04-18T00:26:12.684Z,6.71
2023-04-18T00:28:39.284Z,6.75
2023-04-18T00:31:06.067Z,6.96
2023-04-18T00:33:34.187Z,7.00
2023-04-18T00:36:00.890Z,6.91
2023-04-18T00:38:27.488Z,6.76
2023-04-18T00:40:54.123Z,6.83
2023-04-18T00:43:23.635Z,7.05
2023-04-18T00:45:50.582Z,7.34
2023-04-18T00:48:18.091Z,7.53
2023-04-18T00:50:45.460Z,7.58
2023-04-18T00:53:13.258Z,7.71
2023-04-18T00:55:41.496Z,7.88
2023-04-18T00:58:08.137Z,7.61
2023-04-18T01:00:34.809Z,7.62
2023-04-18T01:03:01.705Z,7.61
2023-04-18T01:05:28.660Z,7.54
2023-04-18T01:07:55.381Z,7.63
2023-04-18T01:10:22.084Z,7.41
2023-04-18T01:12:48.732Z,7.75
2023-04-18T01:15:15.382Z,7.81
2023-04-18T01:17:42.070Z,7.96
2023-04-18T01:20:09.261Z,7.47
2023-04-18T01:22:35.937Z,7.72
2023-04-18T01:25:07.520Z,7.98
2023-04-18T01:27:34.128Z,7.67
2023-04-18T01:30:00.777Z,7.85
2023-04-18T01:32:27.514Z,7.85
2023-04-18T01:34:54.154Z,7.97
2023-04-18T01:37:20.818Z,8.22
2023-04-18T01:39:47.815Z,7.95
2023-04-18T01:42:14.439Z,8.02
2023-04-18T01:44:41.053Z,7.93
2023-04-18T01:47:07.719Z,8.17
2023-04-18T01:49:34.309Z,7.97
2023-04-18T01:52:00.902Z,8.20
2023-04-18T01:54:27.573Z,8.32
2023-04-18T01:56:54.201Z,8.12
2023-04-18T01:59:20.849Z,8.33
2023-04-18T02:01:47.468Z,8.14
2023-04-18T02:04:14.366Z,8.28
2023-04-18T02:06:41.145Z,8.35
2023-04-18T02:09:07.766Z,8.50
2023-04-18T02:11:34.399Z,8.55
2023-04-18T02:14:01.012Z,8.53
2023-04-18T02:16:27.721Z,8.49
2023-04-18T02:18:54.397Z,8.50
2023-04-18T02:21:21.029Z,9.08
2023-04-18T02:23:47.622Z,9.25
2023-04-18T02:26:15.863Z,8.80
2023-04-18T02:28:42.475Z,8.83
2023-04-18T02:31:09.106Z,8.81
2023-04-18T02:33:35.720Z,8.80
2023-04-18T02:36:02.319Z,9.17
2023-04-18T02:38:28.925Z,8.97
2023-04-18T02:40:55.619Z,8.98
2023-04-18T02:43:22.217Z,9.32
2023-04-18T02:45:48.866Z,8.89
2023-04-18T02:48:15.658Z,9.48
2023-04-18T02:50:42.331Z,9.14
2023-04-18T02:53:09.001Z,9.45
2023-04-18T02:55:35.665Z,9.52
2023-04-18T02:58:02.278Z,9.47
2023-04-18T03:00:29.179Z,9.79
2023-04-18T03:02:55.902Z,9.69
2023-04-18T03:05:22.638Z,9.78
2023-04-18T03:07:49.312Z,9.65
2023-04-18T03:10:15.941Z,9.47
2023-04-18T03:12:42.597Z,9.55
2023-04-18T03:15:09.663Z,9.56
2023-04-18T03:17:36.433Z,9.80
2023-04-18T03:20:03.171Z,9.93
2023-04-18T03:22:29.788Z,9.61
2023-04-18T03:24:56.417Z,9.69
2023-04-18T03:27:23.025Z,9.50
2023-04-18T03:29:49.614Z,9.85
2023-04-18T03:32:16.220Z,10.12
2023-04-18T03:34:42.834Z,10.08
2023-04-18T03:37:09.512Z,10.02
2023-04-18T03:39:36.120Z,10.31
2023-04-18T03:42:02.741Z,10.00
2023-04-18T03:44:29.340Z,10.07
2023-04-18T03:46:56.070Z,10.34
2023-04-18T03:49:22.793Z,10.15
2023-04-18T03:51:50.488Z,9.88
2023-04-18T03:54:17.744Z,9.45
2023-04-18T03:56:45.072Z,9.48
2023-04-18T03:59:12.011Z,9.84
2023-04-18T04:01:38.819Z,9.68
2023-04-18T04:04:05.671Z,8.95
2023-04-18T04:06:32.436Z,9.41
2023-04-18T04:08:59.050Z,9.81
2023-04-18T04:11:27.074Z,9.58
2023-04-18T04:13:53.700Z,9.79
2023-04-18T04:16:20.465Z,9.77
2023-04-18T04:18:47.125Z,10.17
2023-04-18T04:21:13.759Z,10.34
2023-04-18T04:23:40.358Z,9.91
2023-04-18T04:26:06.990Z,10.21
2023-04-18T04:28:33.761Z,10.01
2023-04-18T04:31:00.348Z,9.98
2023-04-18T04:33:26.991Z,9.89
2023-04-18T04:35:53.688Z,9.80
2023-04-18T04:38:20.331Z,9.77
2023-04-18T04:40:47.110Z,9.91
2023-04-18T04:43:13.745Z,10.30
2023-04-18T04:45:40.752Z,10.30
2023-04-18T04:48:08.574Z,9.92
2023-04-18T04:50:37.652Z,9.81
2023-04-18T04:53:05.497Z,9.32
2023-04-18T04:55:32.446Z,9.44
2023-04-18T04:57:59.107Z,9.36
2023-04-18T05:00:26.033Z,10.02
2023-04-18T05:02:56.346Z,9.42
2023-04-18T05:05:23.191Z,9.65
2023-04-18T05:07:50.392Z,9.66
2023-04-18T05:10:17.010Z,10.19
2023-04-18T05:12:43.660Z,9.98
2023-04-18T05:15:11.044Z,10.19
2023-04-18T05:17:37.775Z,10.27
2023-04-18T05:20:05.566Z,9.64
2023-04-18T05:22:32.597Z,9.35
2023-04-18T05:24:59.212Z,9.70
2023-04-18T05:27:27.833Z,9.52
2023-04-18T05:29:54.851Z,9.57
2023-04-18T05:32:21.493Z,9.44
2023-04-18T05:34:48.719Z,9.14
2023-04-18T05:37:15.363Z,9.74
2023-04-18T05:39:42.281Z,9.70
2023-04-18T05:42:08.912Z,10.06
2023-04-18T05:44:36.540Z,9.90
2023-04-18T05:47:04.397Z,10.47
2023-04-18T05:49:31.315Z,10.05
2023-04-18T05:51:58.170Z,9.59
2023-04-18T05:54:24.859Z,9.78
2023-04-18T05:56:51.558Z,9.98
2023-04-18T05:59:18.192Z,10.21
2023-04-18T06:01:44.805Z,10.48
2023-04-18T06:04:11.794Z,10.57
2023-04-18T06:06:38.747Z,10.01
2023-04-18T06:09:05.375Z,9.47
2023-04-18T06:11:32.042Z,9.73
2023-04-18T06:13:58.724Z,10.01
2023-04-18T06:16:25.366Z,9.92
2023-04-18T06:18:52.086Z,10.30
2023-04-18T06:21:18.769Z,9.61
2023-04-18T06:23:45.615Z,9.82
2023-04-18T06:26:12.448Z,9.63
2023-04-18T06:28:39.111Z,9.21
2023-04-18T06:31:05.772Z,9.24
2023-04-18T06:33:33.404Z,9.21
2023-04-18T06:36:00.140Z,9.37
2023-04-18T06:38:26.900Z,8.98
2023-04-18T06:40:53.561Z,9.62
2023-04-18T06:43:20.204Z,10.81
2023-04-18T06:45:46.887Z,10.24
2023-04-18T06:48:13.673Z,13.16
2023-04-18T06:50:40.303Z,16.45
2023-04-18T06:53:06.971Z,13.39
2023-04-18T06:55:33.677Z,11.55
2023-04-18T06:58:00.352Z,9.60
2023-04-18T07:00:27.145Z,9.33
2023-04-18T07:02:53.925Z,8.53
2023-04-18T07:05:20.874Z,8.15
2023-04-18T07:07:47.711Z,8.92
2023-04-18T07:10:14.396Z,8.54
2023-04-18T07:12:41.102Z,8.37
2023-04-18T07:15:08.294Z,8.49
2023-04-18T07:17:35.094Z,8.64
2023-04-18T07:20:01.861Z,8.90
2023-04-18T07:22:28.726Z,9.04
2023-04-18T07:24:55.459Z,9.08
2023-04-18T07:27:22.090Z,9.49
2023-04-18T07:29:48.698Z,8.97
2023-04-18T07:32:15.483Z,8.91
2023-04-18T07:34:42.113Z,8.40
2023-04-18T07:37:08.804Z,8.20
2023-04-18T07:39:35.425Z,8.56
2023-04-18T07:42:03.729Z,7.99
2023-04-18T07:44:30.390Z,7.88
2023-04-18T07:46:57.208Z,7.65
2023-04-18T07:49:23.876Z,8.15
2023-04-18T07:51:50.536Z,8.06
2023-04-18T07:54:17.242Z,7.44
2023-04-18T07:56:43.869Z,7.70
2023-04-18T07:59:11.681Z,7.76
2023-04-18T08:01:38.330Z,8.09
2023-04-18T08:04:05.310Z,7.88
2023-04-18T08:06:32.061Z,7.43
2023-04-18T08:08:58.807Z,7.29
2023-04-18T08:11:26.750Z,7.40
2023-04-18T08:13:53.431Z,6.97
2023-04-18T08:16:20.119Z,7.10
2023-04-18T08:18:46.926Z,6.98
2023-04-18T08:21:13.586Z,7.15
2023-04-18T08:23:40.509Z,7.04
2023-04-18T08:26:07.153Z,6.92
2023-04-18T08:28:33.757Z,6.68
2023-04-18T08:31:00.384Z,6.78
2023-04-18T08:33:27.051Z,7.24
2023-04-18T08:35:54.812Z,7.30
2023-04-18T08:38:21.466Z,7.35
2023-04-18T08:40:48.480Z,7.26
2023-04-18T08:43:15.223Z,6.78
2023-04-18T08:45:43.035Z,6.71
2023-04-18T08:48:17.099Z,7.09
2023-04-18T08:50:45.065Z,6.69
2023-04-18T08:53:12.177Z,6.74
2023-04-18T08:55:38.810Z,6.95
2023-04-18T08:58:05.457Z,6.56
2023-04-18T09:00:32.788Z,6.79
2023-04-18T09:02:59.555Z,7.13
2023-04-18T09:05:27.054Z,6.81
2023-04-18T09:07:55.676Z,6.78
2023-04-18T09:10:29.193Z,6.92
2023-04-18T09:12:57.732Z,7.07
2023-04-18T09:15:25.914Z,6.88
2023-04-18T09:17:54.637Z,6.69
2023-04-18T09:20:36.225Z,7.15
2023-04-18T09:23:08.592Z,7.76
2023-04-18T09:25:44.496Z,7.57
2023-04-18T09:28:33.477Z,8.23
2023-04-18T09:31:03.236Z,8.09
2023-04-18T09:33:31.549Z,7.82
2023-04-18T09:36:17.307Z,7.63
2023-04-18T09:38:44.435Z,8.13
2023-04-18T09:41:13.171Z,8.22
2023-04-18T09:43:40.800Z,8.01
2023-04-18T09:46:08.631Z,8.22
2023-04-18T09:48:35.810Z,8.11
2023-04-18T09:51:07.948Z,8.54
2023-04-18T09:53:39.448Z,8.50
2023-04-18T09:56:19.649Z,8.58
2023-04-18T09:58:50.529Z,8.39
2023-04-18T10:01:17.445Z,8.37
2023-04-18T10:03:50.297Z,8.68
2023-04-18T10:06:17.869Z,8.39
2023-04-18T10:08:47.703Z,8.76
2023-04-18T10:11:15.194Z,8.54
2023-04-18T10:13:47.304Z,8.83
2023-04-18T10:16:16.521Z,8.62
2023-04-18T10:18:43.480Z,8.36
2023-04-18T10:21:10.081Z,8.42
2023-04-18T10:23:40.377Z,8.43
2023-04-18T10:26:10.999Z,8.44
2023-04-18T10:28:58.094Z,8.11
2023-04-18T10:31:29.301Z,8.29
2023-04-18T10:36:30.096Z,8.08
2023-04-18T10:39:20.756Z,8.52
2023-04-18T10:41:51.444Z,8.43
2023-04-18T10:44:20.540Z,8.14
2023-04-18T10:46:53.208Z,8.10
2023-04-18T10:49:27.349Z,7.93
2023-04-18T10:51:57.779Z,8.94
2023-04-18T10:54:27.515Z,8.51
2023-04-18T10:56:58.237Z,7.91
2023-04-18T10:59:26.318Z,7.35
2023-04-18T11:02:27.079Z,7.71
2023-04-18T11:04:58.708Z,7.81
2023-04-18T11:07:42.084Z,7.74
2023-04-18T11:10:09.761Z,7.66
2023-04-18T11:12:38.745Z,7.46
2023-04-18T11:15:20.754Z,7.51
2023-04-18T11:17:59.097Z,7.34
2023-04-18T11:20:26.555Z,7.52
2023-04-18T11:22:55.566Z,7.95
2023-04-18T11:25:29.375Z,7.64
2023-04-18T11:27:59.604Z,7.51
2023-04-18T11:30:26.292Z,8.07
2023-04-18T11:32:53.047Z,8.53
2023-04-18T11:35:19.905Z,8.25
2023-04-18T11:37:46.517Z,8.32
2023-04-18T11:40:14.053Z,8.44
2023-04-18T11:42:41.926Z,8.55
2023-04-18T11:45:17.300Z,8.12
2023-04-18T11:47:45.940Z,7.84
2023-04-18T11:50:13.705Z,8.14
2023-04-18T11:52:41.776Z,8.35
2023-04-18T11:55:15.514Z,8.23
2023-04-18T11:57:42.251Z,8.48
2023-04-18T12:00:10.119Z,8.65
2023-04-18T12:02:46.808Z,8.60
2023-04-18T12:05:28.506Z,8.49
2023-04-18T12:07:56.454Z,8.74
2023-04-18T12:10:24.646Z,9.35
2023-04-18T12:12:59.057Z,9.11
2023-04-18T12:15:28.077Z,9.31
2023-04-18T12:18:05.621Z,9.40
2023-04-18T12:20:38.596Z,9.55
2023-04-18T12:23:06.994Z,9.27
2023-04-18T12:25:33.711Z,9.08
2023-04-18T12:28:03.669Z,9.42
2023-04-18T12:30:35.382Z,9.00
2023-04-18T12:33:05.044Z,9.18
2023-04-18T12:35:32.713Z,9.32
2023-04-18T12:38:02.218Z,9.36
2023-04-18T12:40:30.072Z,9.03
2023-04-18T12:42:56.859Z,9.32
2023-04-18T12:45:24.045Z,8.86
2023-04-18T12:47:52.575Z,8.86
2023-04-18T12:50:22.922Z,8.74
2023-04-18T12:52:52.534Z,8.76
2023-04-18T12:55:19.855Z,9.08
2023-04-18T12:57:46.676Z,8.77
2023-04-18T13:00:13.874Z,9.13
2023-04-18T13:02:43.634Z,8.64
2023-04-18T13:05:15.968Z,8.52
2023-04-18T13:07:43.859Z,8.96
2023-04-18T13:10:16.273Z,8.60
2023-04-18T13:12:42.932Z,8.52
2023-04-18T13:15:10.268Z,8.33
2023-04-18T13:17:37.952Z,8.07
2023-04-18T13:20:06.734Z,8.16
2023-04-18T13:22:33.912Z,7.55
2023-04-18T13:25:00.560Z,7.71
2023-04-18T13:27:27.420Z,7.44
2023-04-18T13:29:54.195Z,7.23
2023-04-18T13:32:21.250Z,7.05
2023-04-18T13:34:48.439Z,7.16
2023-04-18T13:37:15.771Z,6.85
2023-04-18T13:39:42.673Z,7.09
2023-04-18T13:42:12.656Z,7.23
2023-04-18T13:44:40.122Z,6.56
2023-04-18T13:47:07.507Z,6.56
2023-04-18T13:49:35.755Z,7.45
2023-04-18T13:52:03.304Z,7.61
2023-04-18T13:54:32.083Z,7.97
2023-04-18T13:57:01.507Z,7.81
2023-04-18T13:59:28.571Z,7.86
2023-04-18T14:01:55.879Z,7.53
2023-04-18T14:04:23.571Z,7.64
2023-04-18T14:06:50.531Z,6.98
2023-04-18T14:09:17.928Z,7.10
2023-04-18T14:11:45.489Z,7.22
2023-04-18T14:14:14.644Z,7.44
2023-04-18T14:16:43.623Z,7.40
2023-04-18T14:19:10.264Z,7.66
2023-04-18T14:21:36.960Z,7.68
2023-04-18T14:24:05.615Z,7.92
2023-04-18T14:26:32.234Z,6.78
2023-04-18T14:28:58.916Z,7.78
2023-04-18T14:31:25.578Z,7.35
2023-04-18T14:33:52.256Z,5.67
2023-04-18T14:36:18.873Z,5.06
2023-04-18T14:38:49.037Z,5.12
2023-04-18T14:41:16.207Z,4.59
2023-04-18T14:43:42.942Z,4.64
2023-04-18T14:46:13.916Z,5.14
2023-04-18T14:48:40.721Z,5.44
2023-04-18T14:51:07.413Z,5.56
2023-04-18T14:53:34.078Z,5.64
2023-04-18T14:56:03.419Z,5.59
2023-04-18T14:58:30.282Z,5.09
2023-04-18T15:00:56.907Z,5.40
2023-04-18T15:03:23.674Z,5.71
2023-04-18T15:05:50.335Z,5.15
2023-04-18T15:08:17.219Z,5.06
2023-04-18T15:10:43.883Z,5.72
2023-04-18T15:13:11.132Z,5.50
2023-04-18T15:15:38.813Z,5.23
2023-04-18T15:18:07.135Z,5.27
2023-04-18T15:20:34.649Z,5.16
2023-04-18T15:23:01.647Z,4.84
2023-04-18T15:25:28.458Z,4.79
2023-04-18T15:27:55.073Z,4.54
2023-04-18T15:30:21.780Z,4.92
2023-04-18T15:32:48.543Z,4.84
2023-04-18T15:35:15.274Z,4.96
2023-04-18T15:37:41.924Z,4.93
2023-04-18T15:40:09.121Z,5.20
2023-04-18T15:42:35.857Z,5.88
2023-04-18T15:45:04.353Z,5.11
2023-04-18T15:47:33.286Z,5.10
2023-04-18T15:50:00.524Z,4.94
2023-04-18T15:52:27.165Z,5.23
2023-04-18T15:54:53.985Z,5.02
2023-04-18T15:57:20.610Z,5.27
2023-04-18T15:59:47.233Z,5.56
2023-04-18T16:02:14.029Z,6.08
2023-04-18T16:04:40.792Z,5.61
2023-04-18T16:07:07.440Z,5.40
2023-04-18T16:09:34.098Z,5.33
2023-04-18T16:12:00.707Z,5.20
2023-04-18T16:14:27.336Z,5.53
2023-04-18T16:16:53.997Z,4.10
2023-04-18T16:19:20.662Z,3.58
2023-04-18T16:21:47.406Z,3.02
2023-04-18T16:24:19.597Z,2.93
2023-04-18T16:26:46.273Z,3.22
2023-04-18T16:29:12.936Z,3.41
2023-04-18T16:31:39.578Z,3.62
2023-04-18T16:34:06.382Z,3.57
2023-04-18T16:36:33.475Z,3.22
2023-04-18T16:39:00.116Z,2.85
2023-04-18T16:41:26.804Z,2.61
2023-04-18T16:43:53.447Z,2.77
2023-04-18T16:46:20.085Z,2.40
2023-04-18T16:48:46.703Z,2.14
2023-04-18T16:51:13.379Z,2.00
2023-04-18T16:53:40.091Z,1.69
2023-04-18T16:56:06.813Z,1.63
2023-04-18T16:58:33.450Z,1.55
2023-04-18T17:01:01.790Z,1.48
2023-04-18T17:03:28.571Z,1.56
2023-04-18T17:05:55.730Z,1.43
2023-04-18T17:08:22.385Z,1.43
2023-04-18T17:10:51.754Z,1.39
2023-04-18T17:13:18.521Z,1.52
2023-04-18T17:15:45.267Z,1.50
2023-04-18T17:18:12.010Z,1.52
2023-04-18T17:20:39.574Z,1.47
2023-04-18T17:23:06.302Z,1.37
2023-04-18T17:25:32.898Z,1.33
2023-04-18T17:27:59.536Z,1.39
2023-04-18T17:30:26.217Z,1.35
2023-04-18T17:32:52.912Z,1.48
2023-04-18T17:35:19.800Z,2.02
2023-04-18T17:37:47.320Z,2.82
2023-04-18T17:40:14.215Z,3.56
2023-04-18T17:42:40.990Z,4.45
2023-04-18T17:45:09.746Z,4.99
2023-04-18T17:47:39.084Z,5.85
2023-04-18T17:50:06.620Z,6.01
2023-04-18T17:52:33.371Z,6.10
2023-04-18T17:55:00.655Z,6.63
2023-04-18T17:57:27.612Z,7.21
2023-04-18T17:59:54.266Z,6.90
2023-04-18T18:02:21.014Z,7.12
2023-04-18T18:04:47.661Z,7.41
2023-04-18T18:07:14.285Z,7.92
2023-04-18T18:09:40.958Z,7.95
2023-04-18T18:12:09.044Z,8.70
2023-04-18T18:14:35.769Z,8.07
2023-04-18T18:17:03.003Z,8.50
2023-04-18T18:19:29.821Z,8.23
2023-04-18T18:21:56.573Z,8.51
2023-04-18T18:24:23.218Z,8.61
2023-04-18T18:26:51.961Z,8.79
2023-04-18T18:29:18.812Z,9.20
2023-04-18T18:31:45.574Z,8.86
2023-04-18T18:34:12.292Z,9.61
2023-04-18T18:36:38.954Z,8.94
2023-04-18T18:39:05.595Z,9.02
2023-04-18T18:41:32.210Z,9.07
2023-04-18T18:43:58.864Z,9.36
2023-04-18T18:46:25.611Z,9.14
2023-04-18T18:48:52.271Z,9.17
2023-04-18T18:51:18.995Z,9.30
2023-04-18T18:53:46.535Z,9.22
2023-04-18T18:56:13.321Z,9.45
2023-04-18T18:58:39.929Z,9.54
2023-04-18T19:01:06.772Z,9.56
2023-04-18T19:03:33.506Z,9.24
2023-04-18T19:06:00.296Z,9.69
2023-04-18T19:08:26.919Z,9.75
2023-04-18T19:10:53.543Z,9.56
2023-04-18T19:13:22.024Z,10.04
2023-04-18T19:15:48.903Z,10.41
2023-04-18T19:18:15.641Z,9.72
2023-04-18T19:20:42.311Z,9.86
2023-04-18T19:23:08.925Z,9.72
2023-04-18T19:25:35.616Z,9.91
2023-04-18T19:28:02.392Z,9.60
2023-04-18T19:30:29.191Z,9.85
2023-04-18T19:32:55.847Z,9.33
2023-04-18T19:35:22.719Z,9.47
2023-04-18T19:37:49.570Z,9.32
2023-04-18T19:40:16.388Z,9.36
2023-04-18T19:42:43.080Z,9.38
2023-04-18T19:45:10.243Z,9.28
2023-04-18T19:47:36.946Z,9.48
2023-04-18T19:50:03.926Z,9.34
2023-04-18T19:52:30.592Z,9.41
2023-04-18T19:54:57.213Z,9.61
2023-04-18T19:57:23.806Z,9.21
2023-04-18T19:59:50.458Z,8.99
2023-04-18T20:02:17.116Z,9.10
2023-04-18T20:04:44.099Z,9.40
2023-04-18T20:07:10.910Z,9.55
2023-04-18T20:09:37.556Z,9.45
2023-04-18T20:12:04.324Z,9.08
2023-04-18T20:14:32.084Z,9.27
2023-04-18T20:16:58.684Z,9.22
2023-04-18T20:19:25.332Z,9.04
2023-04-18T20:21:52.337Z,8.98
2023-04-18T20:24:18.989Z,9.02
2023-04-18T20:26:45.579Z,8.94
2023-04-18T20:29:12.445Z,8.99
2023-04-18T20:31:42.274Z,8.74
2023-04-18T20:34:08.921Z,9.08
2023-04-18T20:36:36.897Z,8.89
2023-04-18T20:39:03.528Z,9.24
2023-04-18T20:41:30.289Z,9.00
2023-04-18T20:43:56.993Z,9.14
2023-04-18T20:46:23.827Z,9.32
2023-04-18T20:48:50.480Z,9.32
2023-04-18T20:51:17.092Z,8.82
2023-04-18T20:53:43.722Z,9.07
2023-04-18T20:56:10.323Z,9.40
2023-04-18T20:58:38.382Z,9.47
2023-04-18T21:01:05.053Z,9.59
2023-04-18T21:03:31.857Z,9.64
2023-04-18T21:05:58.611Z,9.68
2023-04-18T21:08:25.188Z,9.71
2023-04-18T21:10:52.072Z,9.66
2023-04-18T21:13:18.793Z,10.00
2023-04-18T21:15:45.447Z,9.64
2023-04-18T21:18:12.139Z,9.82
2023-04-18T21:20:38.850Z,9.94
2023-04-18T21:23:05.508Z,9.69
2023-04-18T21:25:32.118Z,10.27
2023-04-18T21:27:58.737Z,10.03
2023-04-18T21:30:25.569Z,10.29
2023-04-18T21:32:52.266Z,10.32
2023-04-18T21:35:20.266Z,10.40
2023-04-18T21:37:48.603Z,10.58
2023-04-18T21:40:15.433Z,10.46
2023-04-18T21:42:42.107Z,10.51
2023-04-18T21:45:10.089Z,10.51
2023-04-18T21:47:36.788Z,10.51
2023-04-18T21:50:03.944Z,10.78
2023-04-18T21:52:30.574Z,10.52
2023-04-18T21:54:57.184Z,10.50
2023-04-18T21:57:23.842Z,10.58
2023-04-18T21:59:50.469Z,10.68
2023-04-18T22:02:17.645Z,10.80
2023-04-18T22:04:44.348Z,10.80
2023-04-18T22:07:10.983Z,10.80
2023-04-18T22:09:37.945Z,10.81
2023-04-18T22:12:04.891Z,10.78
2023-04-18T22:14:31.542Z,10.66
2023-04-18T22:16:58.358Z,10.59
2023-04-18T22:19:25.598Z,10.89
2023-04-18T22:21:52.295Z,10.97
2023-04-18T22:24:19.016Z,11.02
2023-04-18T22:26:45.638Z,11.36
2023-04-18T22:29:12.273Z,10.68
2023-04-18T22:31:38.897Z,10.87
2023-04-18T22:34:05.524Z,11.31
2023-04-18T22:36:32.191Z,11.20
2023-04-18T22:38:58.800Z,11.12
2023-04-18T22:41:25.414Z,11.12
2023-04-18T22:43:52.098Z,10.89
2023-04-18T22:46:18.777Z,10.70
2023-04-18T22:48:45.490Z,10.91
2023-04-18T22:51:12.120Z,10.72
2023-04-18T22:53:38.777Z,10.46
2023-04-18T22:56:05.755Z,10.91
2023-04-18T22:58:32.528Z,11.07
2023-04-18T23:00:59.629Z,11.10
2023-04-18T23:03:26.411Z,11.03
2023-04-18T23:05:53.121Z,11.04
2023-04-18T23:08:19.787Z,10.77
2023-04-18T23:10:46.462Z,11.06
2023-04-18T23:13:13.717Z,11.30
2023-04-18T23:15:40.375Z,11.47
2023-04-18T23:18:07.108Z,10.93
2023-04-18T23:20:33.877Z,11.16
2023-04-18T23:23:00.966Z,11.47
2023-04-18T23:25:27.762Z,11.18
2023-04-18T23:27:54.368Z,10.80
2023-04-18T23:30:21.060Z,11.03
2023-04-18T23:32:47.752Z,11.50
2023-04-18T23:35:14.595Z,11.04
2023-04-18T23:37:41.187Z,11.09
2023-04-18T23:40:08.503Z,11.23
2023-04-18T23:42:35.585Z,11.34
2023-04-18T23:45:03.354Z,11.40
2023-04-18T23:47:30.407Z,11.45
2023-04-18T23:49:57.053Z,11.32
2023-04-18T23:52:23.700Z,11.50
2023-04-18T23:54:50.305Z,11.67
2023-04-18T23:57:16.961Z,11.31
2023-04-18T23:59:43.611Z,11.49
